sensor_id;sensor_type;location;lat;lon;timestamp;P1;durP1;ratioP1;P2;durP2;ratioP2
15106;SDS011;7654;45.308;-75.096;2023-05-07T00:01:11;0.30;;;0.30;;
15106;SDS011;7654;45.308;-75.096;2023-05-07T00:03:43;0.30;;;0.30;;
15106;SDS011;7654;45.308;-75.096;2023-05-07T00:06:14;0.30;;;0.30;;
15106;SDS011;7654;45.308;-75.096;2023-05-07T00:08:47;0.30;;;0.30;;
15106;SDS011;7654;45.308;-75.096;2023-05-07T00:11:18;0.30;;;0.30;;
15106;SDS011;7654;45.308;-75.096;2023-05-07T00:13:50;0.30;;;0.30;;
15106;SDS011;7654;45.308;-75.096;2023-05-07T00:16:20;0.30;;;0.30;;
15106;SDS011;7654;45.308;-75.096;2023-05-07T00:18:52;0.20;;;0.20;;
15106;SDS011;7654;45.308;-75.096;2023-05-07T00:21:23;0.20;;;0.20;;
15106;SDS011;7654;45.308;-75.096;2023-05-07T00:23:56;0.37;;;0.37;;
15106;SDS011;7654;45.308;-75.096;2023-05-07T00:26:27;0.30;;;0.30;;
15106;SDS011;7654;45.308;-75.096;2023-05-07T00:28:57;0.30;;;0.30;;
15106;SDS011;7654;45.308;-75.096;2023-05-07T00:31:27;0.30;;;0.30;;
15106;SDS011;7654;45.308;-75.096;2023-05-07T00:33:58;0.30;;;0.30;;
15106;SDS011;7654;45.308;-75.096;2023-05-07T00:36:28;0.30;;;0.30;;
15106;SDS011;7654;45.308;-75.096;2023-05-07T00:39:01;0.30;;;0.30;;
15106;SDS011;7654;45.308;-75.096;2023-05-07T00:41:31;0.30;;;0.30;;
15106;SDS011;7654;45.308;-75.096;2023-05-07T00:44:03;0.30;;;0.30;;
15106;SDS011;7654;45.308;-75.096;2023-05-07T00:46:34;0.30;;;0.30;;
15106;SDS011;7654;45.308;-75.096;2023-05-07T00:49:05;0.30;;;0.30;;
15106;SDS011;7654;45.308;-75.096;2023-05-07T00:51:35;0.30;;;0.30;;
15106;SDS011;7654;45.308;-75.096;2023-05-07T00:54:08;0.30;;;0.30;;
15106;SDS011;7654;45.308;-75.096;2023-05-07T00:56:57;0.30;;;0.30;;
15106;SDS011;7654;45.308;-75.096;2023-05-07T00:59:29;0.30;;;0.30;;
15106;SDS011;7654;45.308;-75.096;2023-05-07T01:02:00;0.30;;;0.30;;
15106;SDS011;7654;45.308;-75.096;2023-05-07T01:04:31;0.30;;;0.30;;
15106;SDS011;7654;45.308;-75.096;2023-05-07T01:07:02;0.30;;;0.30;;
15106;SDS011;7654;45.308;-75.096;2023-05-07T01:09:34;0.30;;;0.30;;
15106;SDS011;7654;45.308;-75.096;2023-05-07T01:12:06;0.30;;;0.30;;
15106;SDS011;7654;45.308;-75.096;2023-05-07T01:14:37;0.30;;;0.30;;
15106;SDS011;7654;45.308;-75.096;2023-05-07T01:17:07;0.30;;;0.30;;
15106;SDS011;7654;45.308;-75.096;2023-05-07T01:19:38;0.30;;;0.30;;
15106;SDS011;7654;45.308;-75.096;2023-05-07T01:22:09;0.40;;;0.40;;
15106;SDS011;7654;45.308;-75.096;2023-05-07T01:24:43;0.37;;;0.37;;
15106;SDS011;7654;45.308;-75.096;2023-05-07T01:27:13;0.30;;;0.30;;
15106;SDS011;7654;45.308;-75.096;2023-05-07T01:29:43;0.30;;;0.30;;
15106;SDS011;7654;45.308;-75.096;2023-05-07T01:32:14;0.37;;;0.37;;
15106;SDS011;7654;45.308;-75.096;2023-05-07T01:34:48;0.30;;;0.30;;
15106;SDS011;7654;45.308;-75.096;2023-05-07T01:37:21;0.30;;;0.30;;
15106;SDS011;7654;45.308;-75.096;2023-05-07T01:39:54;0.30;;;0.30;;
15106;SDS011;7654;45.308;-75.096;2023-05-07T01:42:25;0.30;;;0.30;;
15106;SDS011;7654;45.308;-75.096;2023-05-07T01:44:55;0.30;;;0.30;;
15106;SDS011;7654;45.308;-75.096;2023-05-07T01:47:25;0.33;;;0.33;;
15106;SDS011;7654;45.308;-75.096;2023-05-07T01:49:56;0.30;;;0.30;;
15106;SDS011;7654;45.308;-75.096;2023-05-07T01:52:27;0.30;;;0.30;;
15106;SDS011;7654;45.308;-75.096;2023-05-07T01:55:01;0.40;;;0.40;;
15106;SDS011;7654;45.308;-75.096;2023-05-07T01:57:31;0.40;;;0.40;;
15106;SDS011;7654;45.308;-75.096;2023-05-07T02:00:01;0.40;;;0.40;;
15106;SDS011;7654;45.308;-75.096;2023-05-07T02:02:33;0.30;;;0.30;;
15106;SDS011;7654;45.308;-75.096;2023-05-07T02:05:03;0.40;;;0.40;;
15106;SDS011;7654;45.308;-75.096;2023-05-07T02:07:34;0.40;;;0.40;;
15106;SDS011;7654;45.308;-75.096;2023-05-07T02:10:06;0.33;;;0.33;;
15106;SDS011;7654;45.308;-75.096;2023-05-07T02:12:38;0.40;;;0.40;;
15106;SDS011;7654;45.308;-75.096;2023-05-07T02:15:08;0.40;;;0.40;;
15106;SDS011;7654;45.308;-75.096;2023-05-07T02:17:39;0.40;;;0.40;;
15106;SDS011;7654;45.308;-75.096;2023-05-07T02:20:28;0.40;;;0.40;;
15106;SDS011;7654;45.308;-75.096;2023-05-07T02:22:58;0.30;;;0.30;;
15106;SDS011;7654;45.308;-75.096;2023-05-07T02:25:31;0.40;;;0.40;;
15106;SDS011;7654;45.308;-75.096;2023-05-07T02:28:01;0.40;;;0.40;;
15106;SDS011;7654;45.308;-75.096;2023-05-07T02:30:32;0.40;;;0.40;;
15106;SDS011;7654;45.308;-75.096;2023-05-07T02:33:02;0.40;;;0.40;;
15106;SDS011;7654;45.308;-75.096;2023-05-07T02:35:32;0.40;;;0.40;;
15106;SDS011;7654;45.308;-75.096;2023-05-07T02:38:03;0.40;;;0.40;;
15106;SDS011;7654;45.308;-75.096;2023-05-07T02:40:35;0.30;;;0.30;;
15106;SDS011;7654;45.308;-75.096;2023-05-07T02:43:07;0.40;;;0.40;;
15106;SDS011;7654;45.308;-75.096;2023-05-07T02:45:37;0.40;;;0.40;;
15106;SDS011;7654;45.308;-75.096;2023-05-07T02:48:07;0.40;;;0.40;;
15106;SDS011;7654;45.308;-75.096;2023-05-07T02:50:38;0.40;;;0.40;;
15106;SDS011;7654;45.308;-75.096;2023-05-07T02:53:08;0.30;;;0.30;;
15106;SDS011;7654;45.308;-75.096;2023-05-07T02:55:40;0.40;;;0.40;;
15106;SDS011;7654;45.308;-75.096;2023-05-07T02:58:10;0.40;;;0.40;;
15106;SDS011;7654;45.308;-75.096;2023-05-07T03:00:40;0.40;;;0.40;;
15106;SDS011;7654;45.308;-75.096;2023-05-07T03:03:11;0.40;;;0.40;;
15106;SDS011;7654;45.308;-75.096;2023-05-07T03:05:41;0.40;;;0.40;;
15106;SDS011;7654;45.308;-75.096;2023-05-07T03:08:11;0.30;;;0.30;;
15106;SDS011;7654;45.308;-75.096;2023-05-07T03:10:43;0.40;;;0.40;;
15106;SDS011;7654;45.308;-75.096;2023-05-07T03:13:14;0.40;;;0.40;;
15106;SDS011;7654;45.308;-75.096;2023-05-07T03:15:44;0.30;;;0.30;;
15106;SDS011;7654;45.308;-75.096;2023-05-07T03:18:14;0.40;;;0.40;;
15106;SDS011;7654;45.308;-75.096;2023-05-07T03:20:45;0.33;;;0.33;;
15106;SDS011;7654;45.308;-75.096;2023-05-07T03:23:17;0.40;;;0.40;;
15106;SDS011;7654;45.308;-75.096;2023-05-07T03:25:52;0.40;;;0.40;;
15106;SDS011;7654;45.308;-75.096;2023-05-07T03:28:22;0.30;;;0.30;;
15106;SDS011;7654;45.308;-75.096;2023-05-07T03:30:52;0.40;;;0.40;;
15106;SDS011;7654;45.308;-75.096;2023-05-07T03:33:23;0.40;;;0.40;;
15106;SDS011;7654;45.308;-75.096;2023-05-07T03:35:54;0.40;;;0.40;;
15106;SDS011;7654;45.308;-75.096;2023-05-07T03:38:24;0.40;;;0.40;;
15106;SDS011;7654;45.308;-75.096;2023-05-07T03:40:57;0.40;;;0.40;;
15106;SDS011;7654;45.308;-75.096;2023-05-07T03:43:27;0.40;;;0.40;;
15106;SDS011;7654;45.308;-75.096;2023-05-07T03:45:58;0.40;;;0.40;;
15106;SDS011;7654;45.308;-75.096;2023-05-07T03:48:28;0.40;;;0.40;;
15106;SDS011;7654;45.308;-75.096;2023-05-07T03:50:58;0.40;;;0.40;;
15106;SDS011;7654;45.308;-75.096;2023-05-07T03:53:29;0.40;;;0.40;;
15106;SDS011;7654;45.308;-75.096;2023-05-07T03:56:01;0.40;;;0.40;;
15106;SDS011;7654;45.308;-75.096;2023-05-07T03:58:32;0.40;;;0.40;;
15106;SDS011;7654;45.308;-75.096;2023-05-07T04:01:02;0.50;;;0.50;;
15106;SDS011;7654;45.308;-75.096;2023-05-07T04:03:32;0.40;;;0.40;;
15106;SDS011;7654;45.308;-75.096;2023-05-07T04:06:03;0.40;;;0.40;;
15106;SDS011;7654;45.308;-75.096;2023-05-07T04:08:33;0.40;;;0.40;;
15106;SDS011;7654;45.308;-75.096;2023-05-07T04:11:05;0.47;;;0.47;;
15106;SDS011;7654;45.308;-75.096;2023-05-07T04:13:35;0.40;;;0.40;;
15106;SDS011;7654;45.308;-75.096;2023-05-07T04:16:06;0.40;;;0.40;;
15106;SDS011;7654;45.308;-75.096;2023-05-07T04:18:37;0.40;;;0.40;;
15106;SDS011;7654;45.308;-75.096;2023-05-07T04:21:13;0.50;;;0.50;;
15106;SDS011;7654;45.308;-75.096;2023-05-07T04:23:45;0.40;;;0.40;;
15106;SDS011;7654;45.308;-75.096;2023-05-07T04:26:17;0.40;;;0.40;;
15106;SDS011;7654;45.308;-75.096;2023-05-07T04:28:48;0.40;;;0.40;;
15106;SDS011;7654;45.308;-75.096;2023-05-07T04:31:18;0.40;;;0.40;;
15106;SDS011;7654;45.308;-75.096;2023-05-07T04:33:48;0.40;;;0.40;;
15106;SDS011;7654;45.308;-75.096;2023-05-07T04:36:19;0.40;;;0.40;;
15106;SDS011;7654;45.308;-75.096;2023-05-07T04:38:49;0.40;;;0.40;;
15106;SDS011;7654;45.308;-75.096;2023-05-07T04:41:21;0.47;;;0.47;;
15106;SDS011;7654;45.308;-75.096;2023-05-07T04:43:51;0.40;;;0.40;;
15106;SDS011;7654;45.308;-75.096;2023-05-07T04:46:21;0.40;;;0.40;;
15106;SDS011;7654;45.308;-75.096;2023-05-07T04:48:52;0.40;;;0.40;;
15106;SDS011;7654;45.308;-75.096;2023-05-07T04:51:22;0.40;;;0.40;;
15106;SDS011;7654;45.308;-75.096;2023-05-07T04:53:53;0.50;;;0.50;;
15106;SDS011;7654;45.308;-75.096;2023-05-07T04:56:25;0.40;;;0.40;;
15106;SDS011;7654;45.308;-75.096;2023-05-07T04:58:58;0.40;;;0.40;;
15106;SDS011;7654;45.308;-75.096;2023-05-07T05:01:28;0.50;;;0.50;;
15106;SDS011;7654;45.308;-75.096;2023-05-07T05:03:58;0.50;;;0.50;;
15106;SDS011;7654;45.308;-75.096;2023-05-07T05:06:29;0.50;;;0.50;;
15106;SDS011;7654;45.308;-75.096;2023-05-07T05:08:59;0.40;;;0.40;;
15106;SDS011;7654;45.308;-75.096;2023-05-07T05:11:31;0.40;;;0.40;;
15106;SDS011;7654;45.308;-75.096;2023-05-07T05:14:02;0.50;;;0.50;;
15106;SDS011;7654;45.308;-75.096;2023-05-07T05:16:32;0.40;;;0.40;;
15106;SDS011;7654;45.308;-75.096;2023-05-07T05:19:03;0.50;;;0.50;;
15106;SDS011;7654;45.308;-75.096;2023-05-07T05:21:33;0.50;;;0.50;;
15106;SDS011;7654;45.308;-75.096;2023-05-07T05:24:04;0.40;;;0.40;;
15106;SDS011;7654;45.308;-75.096;2023-05-07T05:26:36;0.50;;;0.50;;
15106;SDS011;7654;45.308;-75.096;2023-05-07T05:29:06;0.50;;;0.50;;
15106;SDS011;7654;45.308;-75.096;2023-05-07T05:31:37;0.50;;;0.50;;
15106;SDS011;7654;45.308;-75.096;2023-05-07T05:34:08;0.40;;;0.40;;
15106;SDS011;7654;45.308;-75.096;2023-05-07T05:36:39;0.40;;;0.40;;
15106;SDS011;7654;45.308;-75.096;2023-05-07T05:39:09;0.50;;;0.50;;
15106;SDS011;7654;45.308;-75.096;2023-05-07T05:41:41;0.40;;;0.40;;
15106;SDS011;7654;45.308;-75.096;2023-05-07T05:44:12;0.47;;;0.47;;
15106;SDS011;7654;45.308;-75.096;2023-05-07T05:46:42;0.43;;;0.43;;
15106;SDS011;7654;45.308;-75.096;2023-05-07T05:49:12;0.40;;;0.40;;
15106;SDS011;7654;45.308;-75.096;2023-05-07T05:51:42;0.50;;;0.50;;
15106;SDS011;7654;45.308;-75.096;2023-05-07T05:54:13;0.40;;;0.40;;
15106;SDS011;7654;45.308;-75.096;2023-05-07T05:56:45;0.50;;;0.50;;
15106;SDS011;7654;45.308;-75.096;2023-05-07T05:59:16;0.47;;;0.47;;
15106;SDS011;7654;45.308;-75.096;2023-05-07T06:01:46;0.50;;;0.50;;
15106;SDS011;7654;45.308;-75.096;2023-05-07T06:04:17;0.50;;;0.50;;
15106;SDS011;7654;45.308;-75.096;2023-05-07T06:06:47;0.50;;;0.50;;
15106;SDS011;7654;45.308;-75.096;2023-05-07T06:09:17;0.50;;;0.50;;
15106;SDS011;7654;45.308;-75.096;2023-05-07T06:11:49;0.60;;;0.60;;
15106;SDS011;7654;45.308;-75.096;2023-05-07T06:14:20;0.50;;;0.50;;
15106;SDS011;7654;45.308;-75.096;2023-05-07T06:16:50;0.40;;;0.40;;
15106;SDS011;7654;45.308;-75.096;2023-05-07T06:19:20;0.40;;;0.40;;
15106;SDS011;7654;45.308;-75.096;2023-05-07T06:21:51;0.40;;;0.40;;
15106;SDS011;7654;45.308;-75.096;2023-05-07T06:24:22;0.43;;;0.43;;
15106;SDS011;7654;45.308;-75.096;2023-05-07T06:26:54;0.40;;;0.40;;
15106;SDS011;7654;45.308;-75.096;2023-05-07T06:29:25;0.50;;;0.50;;
15106;SDS011;7654;45.308;-75.096;2023-05-07T06:32:00;0.50;;;0.50;;
15106;SDS011;7654;45.308;-75.096;2023-05-07T06:34:37;0.50;;;0.50;;
15106;SDS011;7654;45.308;-75.096;2023-05-07T06:37:07;0.40;;;0.40;;
15106;SDS011;7654;45.308;-75.096;2023-05-07T06:39:38;0.50;;;0.50;;
15106;SDS011;7654;45.308;-75.096;2023-05-07T06:42:10;0.50;;;0.50;;
15106;SDS011;7654;45.308;-75.096;2023-05-07T06:44:40;0.50;;;0.50;;
15106;SDS011;7654;45.308;-75.096;2023-05-07T06:47:10;0.40;;;0.40;;
15106;SDS011;7654;45.308;-75.096;2023-05-07T06:49:42;0.50;;;0.50;;
15106;SDS011;7654;45.308;-75.096;2023-05-07T06:52:12;0.50;;;0.50;;
15106;SDS011;7654;45.308;-75.096;2023-05-07T06:54:42;0.50;;;0.50;;
15106;SDS011;7654;45.308;-75.096;2023-05-07T06:57:14;0.40;;;0.40;;
15106;SDS011;7654;45.308;-75.096;2023-05-07T06:59:45;0.50;;;0.50;;
15106;SDS011;7654;45.308;-75.096;2023-05-07T07:02:15;0.50;;;0.50;;
15106;SDS011;7654;45.308;-75.096;2023-05-07T07:04:45;0.50;;;0.50;;
15106;SDS011;7654;45.308;-75.096;2023-05-07T07:07:15;0.50;;;0.50;;
15106;SDS011;7654;45.308;-75.096;2023-05-07T07:09:46;0.40;;;0.40;;
15106;SDS011;7654;45.308;-75.096;2023-05-07T07:12:17;0.40;;;0.40;;
15106;SDS011;7654;45.308;-75.096;2023-05-07T07:14:48;0.40;;;0.40;;
15106;SDS011;7654;45.308;-75.096;2023-05-07T07:17:18;0.50;;;0.50;;
15106;SDS011;7654;45.308;-75.096;2023-05-07T07:19:48;0.50;;;0.50;;
15106;SDS011;7654;45.308;-75.096;2023-05-07T07:22:19;0.40;;;0.40;;
15106;SDS011;7654;45.308;-75.096;2023-05-07T07:24:49;0.50;;;0.50;;
15106;SDS011;7654;45.308;-75.096;2023-05-07T07:27:21;0.60;;;0.60;;
15106;SDS011;7654;45.308;-75.096;2023-05-07T07:29:51;0.50;;;0.50;;
15106;SDS011;7654;45.308;-75.096;2023-05-07T07:32:22;0.50;;;0.50;;
15106;SDS011;7654;45.308;-75.096;2023-05-07T07:34:53;0.60;;;0.60;;
15106;SDS011;7654;45.308;-75.096;2023-05-07T07:37:23;0.50;;;0.50;;
15106;SDS011;7654;45.308;-75.096;2023-05-07T07:39:53;0.50;;;0.50;;
15106;SDS011;7654;45.308;-75.096;2023-05-07T07:42:25;0.50;;;0.50;;
15106;SDS011;7654;45.308;-75.096;2023-05-07T07:44:56;0.40;;;0.40;;
15106;SDS011;7654;45.308;-75.096;2023-05-07T07:47:26;0.50;;;0.50;;
15106;SDS011;7654;45.308;-75.096;2023-05-07T07:49:56;0.50;;;0.50;;
15106;SDS011;7654;45.308;-75.096;2023-05-07T07:52:27;0.50;;;0.50;;
15106;SDS011;7654;45.308;-75.096;2023-05-07T07:54:57;0.50;;;0.50;;
15106;SDS011;7654;45.308;-75.096;2023-05-07T07:57:29;0.50;;;0.50;;
15106;SDS011;7654;45.308;-75.096;2023-05-07T07:59:59;0.50;;;0.50;;
15106;SDS011;7654;45.308;-75.096;2023-05-07T08:02:29;0.50;;;0.50;;
15106;SDS011;7654;45.308;-75.096;2023-05-07T08:05:00;0.40;;;0.40;;
15106;SDS011;7654;45.308;-75.096;2023-05-07T08:07:30;0.50;;;0.50;;
15106;SDS011;7654;45.308;-75.096;2023-05-07T08:10:00;0.47;;;0.47;;
15106;SDS011;7654;45.308;-75.096;2023-05-07T08:12:32;0.40;;;0.40;;
15106;SDS011;7654;45.308;-75.096;2023-05-07T08:15:03;0.50;;;0.50;;
15106;SDS011;7654;45.308;-75.096;2023-05-07T08:17:34;0.50;;;0.50;;
15106;SDS011;7654;45.308;-75.096;2023-05-07T08:20:06;0.50;;;0.50;;
15106;SDS011;7654;45.308;-75.096;2023-05-07T08:22:37;0.50;;;0.50;;
15106;SDS011;7654;45.308;-75.096;2023-05-07T08:25:08;0.43;;;0.43;;
15106;SDS011;7654;45.308;-75.096;2023-05-07T08:27:40;0.50;;;0.50;;
15106;SDS011;7654;45.308;-75.096;2023-05-07T08:30:12;0.50;;;0.50;;
15106;SDS011;7654;45.308;-75.096;2023-05-07T08:32:43;0.50;;;0.50;;
15106;SDS011;7654;45.308;-75.096;2023-05-07T08:35:14;0.50;;;0.50;;
15106;SDS011;7654;45.308;-75.096;2023-05-07T08:37:44;0.50;;;0.50;;
15106;SDS011;7654;45.308;-75.096;2023-05-07T08:40:14;0.50;;;0.50;;
15106;SDS011;7654;45.308;-75.096;2023-05-07T08:42:48;0.50;;;0.50;;
15106;SDS011;7654;45.308;-75.096;2023-05-07T08:45:20;0.50;;;0.50;;
15106;SDS011;7654;45.308;-75.096;2023-05-07T08:47:52;0.60;;;0.60;;
15106;SDS011;7654;45.308;-75.096;2023-05-07T08:50:27;0.50;;;0.50;;
15106;SDS011;7654;45.308;-75.096;2023-05-07T08:52:57;0.50;;;0.50;;
15106;SDS011;7654;45.308;-75.096;2023-05-07T08:55:28;0.50;;;0.50;;
15106;SDS011;7654;45.308;-75.096;2023-05-07T08:58:01;0.40;;;0.40;;
15106;SDS011;7654;45.308;-75.096;2023-05-07T09:00:31;0.60;;;0.60;;
15106;SDS011;7654;45.308;-75.096;2023-05-07T09:03:02;0.43;;;0.43;;
15106;SDS011;7654;45.308;-75.096;2023-05-07T09:05:32;0.57;;;0.57;;
15106;SDS011;7654;45.308;-75.096;2023-05-07T09:08:03;0.47;;;0.47;;
15106;SDS011;7654;45.308;-75.096;2023-05-07T09:10:34;0.50;;;0.50;;
15106;SDS011;7654;45.308;-75.096;2023-05-07T09:13:06;0.53;;;0.53;;
15106;SDS011;7654;45.308;-75.096;2023-05-07T09:15:37;0.60;;;0.60;;
15106;SDS011;7654;45.308;-75.096;2023-05-07T09:18:08;0.50;;;0.50;;
15106;SDS011;7654;45.308;-75.096;2023-05-07T09:20:38;0.60;;;0.60;;
15106;SDS011;7654;45.308;-75.096;2023-05-07T09:23:09;0.50;;;0.50;;
15106;SDS011;7654;45.308;-75.096;2023-05-07T09:25:39;0.50;;;0.50;;
15106;SDS011;7654;45.308;-75.096;2023-05-07T09:28:11;0.50;;;0.50;;
15106;SDS011;7654;45.308;-75.096;2023-05-07T09:30:41;0.50;;;0.50;;
15106;SDS011;7654;45.308;-75.096;2023-05-07T09:33:11;0.50;;;0.50;;
15106;SDS011;7654;45.308;-75.096;2023-05-07T09:35:42;0.50;;;0.50;;
15106;SDS011;7654;45.308;-75.096;2023-05-07T09:38:12;0.60;;;0.60;;
15106;SDS011;7654;45.308;-75.096;2023-05-07T09:40:43;0.50;;;0.50;;
15106;SDS011;7654;45.308;-75.096;2023-05-07T09:43:14;0.50;;;0.50;;
15106;SDS011;7654;45.308;-75.096;2023-05-07T09:45:45;0.50;;;0.50;;
15106;SDS011;7654;45.308;-75.096;2023-05-07T09:48:18;0.60;;;0.60;;
15106;SDS011;7654;45.308;-75.096;2023-05-07T09:50:49;0.50;;;0.50;;
15106;SDS011;7654;45.308;-75.096;2023-05-07T09:53:25;0.60;;;0.60;;
15106;SDS011;7654;45.308;-75.096;2023-05-07T09:55:56;0.50;;;0.50;;
15106;SDS011;7654;45.308;-75.096;2023-05-07T09:58:32;0.50;;;0.50;;
15106;SDS011;7654;45.308;-75.096;2023-05-07T10:01:05;0.40;;;0.40;;
15106;SDS011;7654;45.308;-75.096;2023-05-07T10:03:36;0.60;;;0.60;;
15106;SDS011;7654;45.308;-75.096;2023-05-07T10:06:10;0.60;;;0.60;;
15106;SDS011;7654;45.308;-75.096;2023-05-07T10:08:42;0.47;;;0.47;;
15106;SDS011;7654;45.308;-75.096;2023-05-07T10:11:13;0.50;;;0.50;;
15106;SDS011;7654;45.308;-75.096;2023-05-07T10:13:45;0.50;;;0.50;;
15106;SDS011;7654;45.308;-75.096;2023-05-07T10:16:16;0.50;;;0.50;;
15106;SDS011;7654;45.308;-75.096;2023-05-07T10:18:47;0.50;;;0.50;;
15106;SDS011;7654;45.308;-75.096;2023-05-07T10:21:20;0.50;;;0.50;;
15106;SDS011;7654;45.308;-75.096;2023-05-07T10:23:53;0.60;;;0.60;;
15106;SDS011;7654;45.308;-75.096;2023-05-07T10:26:29;0.47;;;0.47;;
15106;SDS011;7654;45.308;-75.096;2023-05-07T10:29:04;0.50;;;0.50;;
15106;SDS011;7654;45.308;-75.096;2023-05-07T10:31:52;0.50;;;0.50;;
15106;SDS011;7654;45.308;-75.096;2023-05-07T10:34:29;0.50;;;0.50;;
15106;SDS011;7654;45.308;-75.096;2023-05-07T10:37:05;0.50;;;0.50;;
15106;SDS011;7654;45.308;-75.096;2023-05-07T10:39:36;0.60;;;0.60;;
15106;SDS011;7654;45.308;-75.096;2023-05-07T10:42:09;0.50;;;0.50;;
15106;SDS011;7654;45.308;-75.096;2023-05-07T10:44:42;0.60;;;0.60;;
15106;SDS011;7654;45.308;-75.096;2023-05-07T10:47:13;0.50;;;0.50;;
15106;SDS011;7654;45.308;-75.096;2023-05-07T11:02:09;0.50;;;0.50;;
15106;SDS011;7654;45.308;-75.096;2023-05-07T11:04:41;0.50;;;0.50;;
15106;SDS011;7654;45.308;-75.096;2023-05-07T11:07:23;0.50;;;0.50;;
15106;SDS011;7654;45.308;-75.096;2023-05-07T11:10:04;0.40;;;0.40;;
15106;SDS011;7654;45.308;-75.096;2023-05-07T11:12:48;0.50;;;0.50;;
15106;SDS011;7654;45.308;-75.096;2023-05-07T11:18:11;0.40;;;0.40;;
15106;SDS011;7654;45.308;-75.096;2023-05-07T11:26:47;0.40;;;0.40;;
15106;SDS011;7654;45.308;-75.096;2023-05-07T11:29:18;0.50;;;0.50;;
15106;SDS011;7654;45.308;-75.096;2023-05-07T11:31:49;0.50;;;0.50;;
15106;SDS011;7654;45.308;-75.096;2023-05-07T11:34:25;0.40;;;0.40;;
15106;SDS011;7654;45.308;-75.096;2023-05-07T11:36:55;0.40;;;0.40;;
15106;SDS011;7654;45.308;-75.096;2023-05-07T11:39:27;0.30;;;0.30;;
15106;SDS011;7654;45.308;-75.096;2023-05-07T11:42:00;0.40;;;0.40;;
15106;SDS011;7654;45.308;-75.096;2023-05-07T11:44:41;0.40;;;0.40;;
15106;SDS011;7654;45.308;-75.096;2023-05-07T11:47:16;0.40;;;0.40;;
15106;SDS011;7654;45.308;-75.096;2023-05-07T11:49:49;0.40;;;0.40;;
15106;SDS011;7654;45.308;-75.096;2023-05-07T11:52:20;0.50;;;0.50;;
15106;SDS011;7654;45.308;-75.096;2023-05-07T11:54:52;0.40;;;0.40;;
15106;SDS011;7654;45.308;-75.096;2023-05-07T11:57:23;0.40;;;0.40;;
15106;SDS011;7654;45.308;-75.096;2023-05-07T11:59:54;0.40;;;0.40;;
15106;SDS011;7654;45.308;-75.096;2023-05-07T12:02:25;0.50;;;0.50;;
15106;SDS011;7654;45.308;-75.096;2023-05-07T12:04:57;0.30;;;0.30;;
15106;SDS011;7654;45.308;-75.096;2023-05-07T12:07:30;0.40;;;0.40;;
15106;SDS011;7654;45.308;-75.096;2023-05-07T12:10:04;0.40;;;0.40;;
15106;SDS011;7654;45.308;-75.096;2023-05-07T12:12:38;0.50;;;0.50;;
15106;SDS011;7654;45.308;-75.096;2023-05-07T12:15:09;0.50;;;0.50;;
15106;SDS011;7654;45.308;-75.096;2023-05-07T12:17:40;0.40;;;0.40;;
15106;SDS011;7654;45.308;-75.096;2023-05-07T12:20:12;0.40;;;0.40;;
15106;SDS011;7654;45.308;-75.096;2023-05-07T12:22:42;0.43;;;0.43;;
15106;SDS011;7654;45.308;-75.096;2023-05-07T12:25:13;0.40;;;0.40;;
15106;SDS011;7654;45.308;-75.096;2023-05-07T12:27:51;0.47;;;0.47;;
15106;SDS011;7654;45.308;-75.096;2023-05-07T12:30:21;0.50;;;0.50;;
15106;SDS011;7654;45.308;-75.096;2023-05-07T12:32:52;0.30;;;0.30;;
15106;SDS011;7654;45.308;-75.096;2023-05-07T12:35:30;0.40;;;0.40;;
15106;SDS011;7654;45.308;-75.096;2023-05-07T12:38:01;0.40;;;0.40;;
15106;SDS011;7654;45.308;-75.096;2023-05-07T12:40:35;0.40;;;0.40;;
15106;SDS011;7654;45.308;-75.096;2023-05-07T12:43:06;0.40;;;0.40;;
15106;SDS011;7654;45.308;-75.096;2023-05-07T12:45:37;0.40;;;0.40;;
15106;SDS011;7654;45.308;-75.096;2023-05-07T12:48:09;0.40;;;0.40;;
15106;SDS011;7654;45.308;-75.096;2023-05-07T12:50:41;0.40;;;0.40;;
15106;SDS011;7654;45.308;-75.096;2023-05-07T12:53:12;0.40;;;0.40;;
15106;SDS011;7654;45.308;-75.096;2023-05-07T12:55:42;0.40;;;0.40;;
15106;SDS011;7654;45.308;-75.096;2023-05-07T12:58:17;0.40;;;0.40;;
15106;SDS011;7654;45.308;-75.096;2023-05-07T13:00:49;0.40;;;0.40;;
15106;SDS011;7654;45.308;-75.096;2023-05-07T13:03:24;0.30;;;0.30;;
15106;SDS011;7654;45.308;-75.096;2023-05-07T13:05:58;0.40;;;0.40;;
15106;SDS011;7654;45.308;-75.096;2023-05-07T13:08:30;0.40;;;0.40;;
15106;SDS011;7654;45.308;-75.096;2023-05-07T13:11:06;0.30;;;0.30;;
15106;SDS011;7654;45.308;-75.096;2023-05-07T13:13:38;0.40;;;0.40;;
15106;SDS011;7654;45.308;-75.096;2023-05-07T13:16:09;0.30;;;0.30;;
15106;SDS011;7654;45.308;-75.096;2023-05-07T13:18:40;0.30;;;0.30;;
15106;SDS011;7654;45.308;-75.096;2023-05-07T13:21:15;0.30;;;0.30;;
15106;SDS011;7654;45.308;-75.096;2023-05-07T13:23:45;0.30;;;0.30;;
15106;SDS011;7654;45.308;-75.096;2023-05-07T13:26:16;0.40;;;0.40;;
15106;SDS011;7654;45.308;-75.096;2023-05-07T13:28:53;0.37;;;0.37;;
15106;SDS011;7654;45.308;-75.096;2023-05-07T13:31:23;0.40;;;0.40;;
15106;SDS011;7654;45.308;-75.096;2023-05-07T13:33:54;0.30;;;0.30;;
15106;SDS011;7654;45.308;-75.096;2023-05-07T13:36:25;0.30;;;0.30;;
15106;SDS011;7654;45.308;-75.096;2023-05-07T13:38:56;0.30;;;0.30;;
15106;SDS011;7654;45.308;-75.096;2023-05-07T13:41:27;0.30;;;0.30;;
15106;SDS011;7654;45.308;-75.096;2023-05-07T13:43:57;0.30;;;0.30;;
15106;SDS011;7654;45.308;-75.096;2023-05-07T13:46:27;0.30;;;0.30;;
15106;SDS011;7654;45.308;-75.096;2023-05-07T13:48:59;0.30;;;0.30;;
15106;SDS011;7654;45.308;-75.096;2023-05-07T13:51:30;0.30;;;0.30;;
15106;SDS011;7654;45.308;-75.096;2023-05-07T13:54:01;0.30;;;0.30;;
15106;SDS011;7654;45.308;-75.096;2023-05-07T13:56:32;0.30;;;0.30;;
15106;SDS011;7654;45.308;-75.096;2023-05-07T13:59:02;0.30;;;0.30;;
15106;SDS011;7654;45.308;-75.096;2023-05-07T14:01:33;0.30;;;0.30;;
15106;SDS011;7654;45.308;-75.096;2023-05-07T14:06:46;0.30;;;0.30;;
15106;SDS011;7654;45.308;-75.096;2023-05-07T14:09:16;0.30;;;0.30;;
15106;SDS011;7654;45.308;-75.096;2023-05-07T14:11:46;0.30;;;0.30;;
15106;SDS011;7654;45.308;-75.096;2023-05-07T14:14:18;0.30;;;0.30;;
15106;SDS011;7654;45.308;-75.096;2023-05-07T14:16:49;0.30;;;0.30;;
15106;SDS011;7654;45.308;-75.096;2023-05-07T14:19:19;0.30;;;0.30;;
15106;SDS011;7654;45.308;-75.096;2023-05-07T14:21:53;0.40;;;0.40;;
15106;SDS011;7654;45.308;-75.096;2023-05-07T14:24:25;0.30;;;0.30;;
15106;SDS011;7654;45.308;-75.096;2023-05-07T14:27:04;0.30;;;0.30;;
15106;SDS011;7654;45.308;-75.096;2023-05-07T14:29:34;0.30;;;0.30;;
15106;SDS011;7654;45.308;-75.096;2023-05-07T14:32:05;0.30;;;0.30;;
15106;SDS011;7654;45.308;-75.096;2023-05-07T14:34:35;0.30;;;0.30;;
15106;SDS011;7654;45.308;-75.096;2023-05-07T14:37:07;0.30;;;0.30;;
15106;SDS011;7654;45.308;-75.096;2023-05-07T14:39:37;0.30;;;0.30;;
15106;SDS011;7654;45.308;-75.096;2023-05-07T14:42:08;0.30;;;0.30;;
15106;SDS011;7654;45.308;-75.096;2023-05-07T14:44:39;0.20;;;0.20;;
15106;SDS011;7654;45.308;-75.096;2023-05-07T14:47:11;0.30;;;0.30;;
15106;SDS011;7654;45.308;-75.096;2023-05-07T14:49:45;0.30;;;0.30;;
15106;SDS011;7654;45.308;-75.096;2023-05-07T14:52:17;0.30;;;0.30;;
15106;SDS011;7654;45.308;-75.096;2023-05-07T14:54:48;0.30;;;0.30;;
15106;SDS011;7654;45.308;-75.096;2023-05-07T14:57:18;0.30;;;0.30;;
15106;SDS011;7654;45.308;-75.096;2023-05-07T14:59:48;0.20;;;0.20;;
15106;SDS011;7654;45.308;-75.096;2023-05-07T15:02:19;0.30;;;0.30;;
15106;SDS011;7654;45.308;-75.096;2023-05-07T15:04:50;0.20;;;0.20;;
15106;SDS011;7654;45.308;-75.096;2023-05-07T15:07:22;0.23;;;0.23;;
15106;SDS011;7654;45.308;-75.096;2023-05-07T15:09:52;0.30;;;0.30;;
15106;SDS011;7654;45.308;-75.096;2023-05-07T15:12:36;0.20;;;0.20;;
15106;SDS011;7654;45.308;-75.096;2023-05-07T15:15:07;0.27;;;0.27;;
15106;SDS011;7654;45.308;-75.096;2023-05-07T15:17:38;0.30;;;0.30;;
15106;SDS011;7654;45.308;-75.096;2023-05-07T15:20:10;0.20;;;0.20;;
15106;SDS011;7654;45.308;-75.096;2023-05-07T15:22:42;0.20;;;0.20;;